Time;durP1;ratioP1;P1;durP2;ratioP2;P2;SDS_P1;SDS_P2;PMS_P1;PMS_P2;Temp;Humidity;BMP_temperature;BMP_pressure;BME280_temperature;BME280_humidity;BME280_pressure;Samples;Min_cycle;Max_cycle;Signal;HPM_P1;HPM_P2
2022/11/25 00:01:17;;;;;;;12.70;2.00;;;;;;;7.98;100.00;100846.72;5010490;28;20432;-89
2022/11/25 00:03:43;;;;;;;17.27;1.70;;;;;;;8.03;100.00;100849.47;5000647;28;20117;-90
2022/11/25 00:06:24;;;;;;;14.80;2.47;;;;;;;8.06;100.00;100842.84;5020097;28;20108;-89
2022/11/25 00:09:02;;;;;;;14.03;2.00;;;;;;;8.09;100.00;100850.38;5010433;28;20386;-91
2022/11/25 00:11:28;;;;;;;18.27;2.22;;;;;;;8.06;100.00;100837.50;5011941;28;20034;-89
2022/11/25 00:13:55;;;;;;;18.75;2.35;;;;;;;8.08;100.00;100851.44;5011757;28;20088;-89
2022/11/25 00:16:21;;;;;;;25.52;2.22;;;;;;;8.10;100.00;100835.97;5011507;28;20072;-90
2022/11/25 00:18:49;;;;;;;17.65;1.95;;;;;;;8.11;100.00;100834.94;5011775;28;20041;-90
2022/11/25 00:21:18;;;;;;;17.67;2.10;;;;;;;8.13;100.00;100836.31;5011090;28;20474;-89
2022/11/25 00:23:43;;;;;;;16.03;2.27;;;;;;;8.10;100.00;100833.31;5005599;28;20288;-90
2022/11/25 00:26:12;;;;;;;16.17;2.58;;;;;;;8.09;100.00;100832.53;5010907;28;20026;-90
2022/11/25 00:28:39;;;;;;;18.17;2.10;;;;;;;8.04;100.00;100819.88;5011655;28;20133;-90
2022/11/25 00:31:08;;;;;;;10.33;1.70;;;;;;;8.04;100.00;100824.41;5010644;28;20350;-89
2022/11/25 00:33:34;;;;;;;15.27;2.13;;;;;;;8.04;100.00;100824.41;5009830;28;20489;-89
2022/11/25 00:36:04;;;;;;;16.63;2.10;;;;;;;8.01;100.00;100823.06;5009874;28;20032;-89
2022/11/25 00:38:29;;;;;;;16.40;2.00;;;;;;;8.02;100.00;100822.00;5012304;28;20680;-89
2022/11/25 00:46:24;;;;;;;18.30;1.70;;;;;;;8.04;100.00;100819.06;5011738;28;20040;-89
2022/11/25 00:48:49;;;;;;;11.37;2.17;;;;;;;8.02;100.00;100814.00;5010038;28;20029;-89
2022/11/25 00:51:14;;;;;;;18.05;3.08;;;;;;;8.05;100.00;100810.03;5011396;28;20046;-90
2022/11/25 00:53:40;;;;;;;22.47;2.20;;;;;;;8.04;100.00;100814.53;5011564;28;20389;-90
2022/11/25 00:56:14;;;;;;;16.23;1.83;;;;;;;8.02;100.00;100821.19;5009852;28;20018;-90
2022/11/25 00:58:41;;;;;;;17.25;1.98;;;;;;;8.02;100.00;100818.50;5012159;28;20030;-90
2022/11/25 01:01:07;;;;;;;16.85;2.35;;;;;;;8.03;100.00;100820.91;5008272;28;20057;-89
2022/11/25 01:03:33;;;;;;;19.13;2.17;;;;;;;8.10;100.00;100822.63;5009083;28;20076;-89
2022/11/25 01:06:03;;;;;;;17.73;2.30;;;;;;;8.09;100.00;100827.19;5010900;28;20549;-89
2022/11/25 01:08:29;;;;;;;18.48;1.95;;;;;;;8.09;100.00;100827.19;5009862;28;20026;-89
2022/11/25 01:10:59;;;;;;;14.00;2.10;;;;;;;8.08;100.00;100825.56;5010179;28;20553;-89
2022/11/25 01:13:24;;;;;;;18.73;2.70;;;;;;;8.09;100.00;100827.19;5009448;28;20474;-89
2022/11/25 01:15:49;;;;;;;19.57;2.67;;;;;;;8.13;100.00;100827.50;5010712;28;20034;-89
2022/11/25 01:18:14;;;;;;;17.33;1.67;;;;;;;8.15;100.00;100825.41;5010153;28;20539;-90
2022/11/25 01:20:40;;;;;;;12.37;2.10;;;;;;;8.18;100.00;100825.72;5010216;28;20033;-89
2022/11/25 01:23:05;;;;;;;11.83;1.83;;;;;;;8.21;100.00;100832.47;5009053;28;20488;-89
2022/11/25 01:25:30;;;;;;;11.47;1.50;;;;;;;8.23;100.00;100829.53;5010593;28;20036;-89
2022/11/25 01:27:56;;;;;;;14.95;2.08;;;;;;;8.27;100.00;100836.81;5008179;28;20030;-90
2022/11/25 01:30:21;;;;;;;20.20;2.13;;;;;;;8.29;100.00;100836.59;5009355;28;20034;-89
2022/11/25 01:32:46;;;;;;;16.70;1.80;;;;;;;8.30;100.00;100836.31;5009782;28;20038;-88
2022/11/25 01:35:11;;;;;;;18.13;2.10;;;;;;;8.30;100.00;100846.22;5010777;28;20057;-89
2022/11/25 01:37:37;;;;;;;17.83;2.03;;;;;;;8.31;100.00;100831.78;5010949;28;20026;-88
2022/11/25 01:40:02;;;;;;;18.57;2.40;;;;;;;8.33;100.00;100848.38;5012546;28;20026;-89
2022/11/25 01:42:30;;;;;;;16.95;2.35;;;;;;;8.37;100.00;100844.19;5011548;28;20096;-89
2022/11/25 01:45:23;;;;;;;13.45;1.80;;;;;;;8.40;100.00;100845.56;5008842;28;20037;-89
2022/11/25 01:47:55;;;;;;;14.48;1.50;;;;;;;8.34;100.00;100848.16;5009882;28;20060;-89
2022/11/25 01:50:23;;;;;;;16.37;2.30;;;;;;;8.36;100.00;100852.44;5009840;28;20034;-89
2022/11/25 01:52:52;;;;;;;17.67;2.13;;;;;;;8.34;100.00;100860.66;5009242;28;20025;-89
2022/11/25 01:55:25;;;;;;;17.48;2.47;;;;;;;8.33;100.00;100862.53;5010768;28;20548;-90
2022/11/25 01:57:57;;;;;;;14.52;2.20;;;;;;;8.34;100.00;100877.53;5011342;28;20113;-88
2022/11/25 02:00:24;;;;;;;18.65;1.95;;;;;;;8.35;100.00;100862.28;5008361;28;20037;-89
2022/11/25 02:02:52;;;;;;;13.73;1.88;;;;;;;8.37;100.00;100867.41;5017065;28;20080;-89
2022/11/25 02:05:50;;;;;;;16.60;2.63;;;;;;;8.47;100.00;100875.56;5009628;28;20497;-89
2022/11/25 02:08:15;;;;;;;14.25;2.05;;;;;;;8.47;100.00;100880.91;5010311;28;20508;-89
2022/11/25 02:10:43;;;;;;;17.95;1.55;;;;;;;8.45;100.00;100883.84;5009038;28;20030;-90
2022/11/25 02:13:10;;;;;;;16.02;1.92;;;;;;;8.48;100.00;100891.41;5009217;28;20026;-89
2022/11/25 02:15:35;;;;;;;15.97;2.37;;;;;;;8.48;100.00;100878.06;5007798;28;20030;-89
2022/11/25 02:18:01;;;;;;;14.33;2.20;;;;;;;8.45;100.00;100888.34;5007801;28;20295;-89
2022/11/25 02:20:27;;;;;;;14.80;1.97;;;;;;;8.45;100.00;100891.84;5009551;28;20029;-89
2022/11/25 02:23:03;;;;;;;17.58;2.00;;;;;;;8.47;100.00;100896.94;5010062;28;20033;-89
2022/11/25 02:25:38;;;;;;;16.17;1.88;;;;;;;8.44;100.00;100902.75;5009814;28;20029;-89
2022/11/25 02:28:12;;;;;;;13.75;1.80;;;;;;;8.41;100.00;100897.91;4991109;28;20478;-90
2022/11/25 02:30:38;;;;;;;21.98;2.40;;;;;;;8.39;100.00;100900.81;5007762;28;20465;-89
2022/11/25 02:33:04;;;;;;;20.47;2.30;;;;;;;8.35;100.00;100907.69;5007328;28;20022;-89
2022/11/25 02:35:38;;;;;;;14.20;2.13;;;;;;;8.26;100.00;100907.28;5009584;28;20528;-89
2022/11/25 02:38:15;;;;;;;18.80;2.15;;;;;;;8.13;100.00;100905.69;5010417;28;20030;-88
2022/11/25 02:40:50;;;;;;;18.77;2.20;;;;;;;8.04;100.00;100905.28;5008833;28;20474;-88
2022/11/25 02:43:16;;;;;;;14.77;1.50;;;;;;;7.96;100.00;100913.69;5009145;28;20049;-89
2022/11/25 02:45:46;;;;;;;12.33;1.93;;;;;;;7.90;100.00;100914.63;5008478;28;20305;-89
2022/11/25 02:48:11;;;;;;;15.80;2.05;;;;;;;7.85;100.00;100923.34;5008718;28;20022;-89
2022/11/25 02:50:37;;;;;;;14.43;1.97;;;;;;;7.80;100.00;100920.56;5008748;28;20084;-89
2022/11/25 02:53:03;;;;;;;19.88;2.05;;;;;;;7.76;100.00;100914.06;5009769;28;20061;-89
2022/11/25 02:55:29;;;;;;;14.98;1.90;;;;;;;7.74;100.00;100913.53;5006167;28;20457;-89
2022/11/25 02:57:54;;;;;;;15.13;1.90;;;;;;;7.70;100.00;100910.50;5009935;28;20026;-90
2022/11/25 03:00:20;;;;;;;15.23;2.07;;;;;;;7.68;100.00;100903.78;5009646;28;20408;-90
2022/11/25 03:02:46;;;;;;;14.33;1.77;;;;;;;7.66;100.00;100904.03;5010039;28;20308;-91
2022/11/25 03:05:12;;;;;;;16.17;1.45;;;;;;;7.61;100.00;100895.94;5009657;28;20076;-91
2022/11/25 03:07:38;;;;;;;17.98;1.75;;;;;;;7.63;100.00;100877.00;5012947;28;20026;-90
2022/11/25 03:10:04;;;;;;;12.13;1.60;;;;;;;7.58;100.00;100859.84;5012587;28;20040;-91
2022/11/25 03:12:31;;;;;;;12.45;1.63;;;;;;;7.57;100.00;100839.59;5016655;28;20041;-90
2022/11/25 03:14:56;;;;;;;16.30;1.70;;;;;;;7.52;100.00;100844.81;5012584;28;20081;-89
2022/11/25 03:17:21;;;;;;;13.37;1.83;;;;;;;7.52;100.00;100849.31;5011016;28;20033;-91
2022/11/25 03:19:47;;;;;;;11.70;1.60;;;;;;;7.51;100.00;100847.72;5009108;28;20116;-88
2022/11/25 03:22:12;;;;;;;15.97;1.40;;;;;;;7.47;100.00;100858.03;5009163;28;20030;-90
2022/11/25 03:24:38;;;;;;;13.05;1.38;;;;;;;7.43;100.00;100873.72;5007696;28;20428;-90
2022/11/25 03:27:04;;;;;;;10.70;1.63;;;;;;;7.42;100.00;100876.59;5012497;28;20030;-90
2022/11/25 03:29:29;;;;;;;9.48;1.27;;;;;;;7.39;100.00;100877.09;5013381;28;20037;-89
2022/11/25 03:31:55;;;;;;;13.23;1.40;;;;;;;7.38;100.00;100873.59;5018551;28;20472;-89
2022/11/25 03:34:20;;;;;;;10.37;1.50;;;;;;;7.35;100.00;100862.59;5018046;28;20032;-90
2022/11/25 03:36:45;;;;;;;13.60;1.60;;;;;;;7.34;100.00;100874.31;5012876;28;20060;-90
2022/11/25 03:39:14;;;;;;;11.37;1.33;;;;;;;7.29;100.00;100893.69;5009456;28;20042;-91
2022/11/25 03:41:39;;;;;;;8.60;1.23;;;;;;;7.28;100.00;100910.72;5010041;28;20072;-90
2022/11/25 03:44:04;;;;;;;9.33;1.07;;;;;;;7.24;100.00;100921.00;5011151;28;20061;-91
2022/11/25 03:46:30;;;;;;;6.30;1.10;;;;;;;7.23;100.00;100915.94;5010848;28;20022;-90
2022/11/25 03:48:55;;;;;;;11.17;1.07;;;;;;;7.21;100.00;100923.34;5013268;28;20014;-90
2022/11/25 03:51:20;;;;;;;8.40;1.47;;;;;;;7.19;100.00;100915.59;5012154;28;20113;-90
2022/11/25 03:53:46;;;;;;;7.47;1.37;;;;;;;7.19;100.00;100917.44;5011509;28;20409;-90
2022/11/25 03:56:13;;;;;;;12.27;1.48;;;;;;;7.16;100.00;100920.56;5005686;28;20583;-89
2022/11/25 03:58:38;;;;;;;9.93;1.47;;;;;;;7.16;100.00;100916.06;5017706;28;20033;-89
2022/11/25 04:01:03;;;;;;;7.60;1.20;;;;;;;7.14;100.00;100923.47;5014663;28;20807;-90
2022/11/25 04:03:30;;;;;;;7.63;1.10;;;;;;;7.15;100.00;100940.25;5012783;28;20665;-91
2022/11/25 04:05:56;;;;;;;10.25;1.20;;;;;;;7.09;100.00;100928.66;5014179;28;20033;-92
2022/11/25 04:08:21;;;;;;;5.07;1.07;;;;;;;7.11;100.00;100935.41;5013017;28;20092;-92
2022/11/25 04:10:50;;;;;;;12.17;2.07;;;;;;;7.12;100.00;100929.00;5013832;28;20037;-92
2022/11/25 04:13:15;;;;;;;7.38;0.93;;;;;;;7.09;100.00;100926.81;5014118;28;20470;-93
2022/11/25 04:15:51;;;;;;;14.50;0.90;;;;;;;7.09;100.00;100942.00;5012935;28;20109;-92
2022/11/25 04:18:20;;;;;;;9.97;0.93;;;;;;;7.09;100.00;100948.16;5013722;28;20129;-93
2022/11/25 04:20:46;;;;;;;6.25;1.02;;;;;;;7.03;100.00;100943.72;5002665;28;20034;-92
2022/11/25 04:23:12;;;;;;;7.50;1.33;;;;;;;7.00;100.00;100943.38;4995581;28;20027;-92
2022/11/25 04:25:38;;;;;;;2.22;0.75;;;;;;;6.90;100.00;100949.28;5010615;28;20061;-92
2022/11/25 04:28:04;;;;;;;5.70;0.80;;;;;;;6.82;100.00;100958.44;5014348;28;20025;-93
2022/11/25 04:30:29;;;;;;;7.13;1.10;;;;;;;6.71;100.00;100960.03;5001283;28;20524;-92
2022/11/25 04:32:54;;;;;;;6.17;1.00;;;;;;;6.60;100.00;100961.63;4996229;28;20015;-92
2022/11/25 04:35:20;;;;;;;7.28;1.25;;;;;;;6.47;100.00;100967.94;5010196;28;20607;-95
2022/11/25 04:37:48;;;;;;;10.57;1.30;;;;;;;6.41;100.00;100974.16;5013427;28;20018;-92
2022/11/25 04:40:14;;;;;;;5.20;0.95;;;;;;;6.41;100.00;100987.47;5012433;28;20084;-91
2022/11/25 04:42:39;;;;;;;5.23;1.10;;;;;;;6.41;100.00;100990.13;5013599;28;20026;-94
2022/11/25 04:45:14;;;;;;;8.90;1.27;;;;;;;6.40;100.00;100996.50;5012380;28;20034;-93
2022/11/25 04:47:40;;;;;;;10.67;1.23;;;;;;;6.41;100.00;100992.00;5011168;28;20034;-95
2022/11/25 04:50:09;;;;;;;8.60;1.40;;;;;;;6.45;100.00;100996.63;5013820;28;20287;-94
2022/11/25 04:52:36;;;;;;;5.90;0.98;;;;;;;6.49;100.00;100997.81;5014086;28;20018;-94
2022/11/25 04:55:01;;;;;;;6.28;0.90;;;;;;;6.51;100.00;100997.56;5013074;28;20079;-95
2022/11/25 04:57:26;;;;;;;11.20;1.33;;;;;;;6.50;100.00;100994.13;5014068;28;20034;-94
2022/11/25 04:59:53;;;;;;;10.52;1.20;;;;;;;6.51;100.00;101000.25;5013919;28;20057;-95
2022/11/25 05:02:22;;;;;;;13.97;1.30;;;;;;;6.55;100.00;100995.28;5013897;28;20084;-95
2022/11/25 05:04:50;;;;;;;7.90;1.13;;;;;;;6.56;100.00;100992.41;5012258;28;20688;-95
2022/11/25 05:07:18;;;;;;;7.40;1.35;;;;;;;6.55;100.00;101011.28;5012785;28;20034;-92
2022/11/25 05:09:43;;;;;;;9.13;1.33;;;;;;;6.45;100.00;101017.13;5011916;28;20449;-92
2022/11/25 05:12:12;;;;;;;11.93;1.27;;;;;;;6.43;100.00;101013.88;5011040;28;20109;-90
2022/11/25 05:14:38;;;;;;;10.48;2.08;;;;;;;6.41;100.00;101014.09;5012128;28;20113;-91
2022/11/25 05:17:06;;;;;;;8.37;1.60;;;;;;;6.36;100.00;101006.00;5013527;28;20485;-91
2022/11/25 05:19:39;;;;;;;11.57;1.13;;;;;;;6.37;100.00;101023.59;5012359;28;20050;-89
2022/11/25 05:22:12;;;;;;;11.82;1.45;;;;;;;6.28;100.00;101016.94;5017797;28;20053;-91
2022/11/25 05:24:39;;;;;;;7.80;1.38;;;;;;;6.20;100.00;101018.88;5019755;28;20022;-90
2022/11/25 05:27:08;;;;;;;9.23;1.25;;;;;;;6.14;100.00;101014.44;5010843;28;20092;-90
2022/11/25 05:29:43;;;;;;;6.90;1.48;;;;;;;6.12;100.00;101008.53;5012221;28;20109;-90
2022/11/25 05:32:11;;;;;;;8.57;1.37;;;;;;;6.06;100.00;101020.88;5009855;28;20096;-90
2022/11/25 05:34:47;;;;;;;7.27;1.27;;;;;;;6.02;100.00;101010.91;5011092;28;20289;-91
2022/11/25 05:37:14;;;;;;;6.88;1.23;;;;;;;6.04;100.00;101014.13;5018799;28;20577;-95
2022/11/25 05:39:42;;;;;;;8.00;1.20;;;;;;;6.04;100.00;101012.31;5015435;28;20037;-94
2022/11/25 05:42:10;;;;;;;8.00;1.25;;;;;;;6.06;100.00;101026.19;5003809;28;20018;-96
2022/11/25 05:44:47;;;;;;;;;;;;;;;;;;;;;
2022/11/25 05:47:32;;;;;;;;;;;;;;;;;;;;;
2022/11/25 05:50:11;;;;;;;;;;;;;;;;;;;;;
2022/11/25 05:52:51;;;;;;;8.73;1.10;;;;;;;5.82;100.00;101035.84;5005165;28;20368;-94
2022/11/25 05:55:19;;;;;;;7.82;1.33;;;;;;;5.68;100.00;101013.06;5037640;28;19998;-93
2022/11/25 05:57:58;;;;;;;;;;;;;;;;;;;;;
2022/11/25 06:00:55;;;;;;;7.32;1.40;;;;;;;5.77;100.00;101038.34;5031619;28;20076;-93
2022/11/25 06:03:39;;;;;;;;;;;;;;;;;;;;;
2022/11/25 06:11:39;;;;;;;;;;;;;;;;;;;;;
2022/11/25 06:17:05;;;;;;;13.23;2.20;;;;;;;5.59;100.00;101036.47;4983518;28;20045;-96
2022/11/25 06:19:44;;;;;;;11.10;1.90;;;;;;;5.45;100.00;101025.97;4995075;28;20431;-95
2022/11/25 06:27:29;;;;;;;13.57;1.90;;;;;;;5.50;100.00;101059.84;5033277;28;20058;-96
2022/11/25 06:30:07;;;;;;;;;;;;;;;;;;;;;
2022/11/25 06:32:46;;;;;;;;;;;;;;;;;;;;;
2022/11/25 06:35:19;;;;;;;10.73;2.30;;;;;;;5.34;100.00;101047.94;5007016;28;20462;-96
2022/11/25 06:37:45;;;;;;;11.68;2.40;;;;;;;5.39;100.00;101064.03;5003227;28;20019;-96
2022/11/25 06:43:24;;;;;;;;;;;;;;;;;;;;;
2022/11/25 06:46:01;;;;;;;;;;;;;;;;;;;;;
2022/11/25 06:48:37;;;;;;;13.80;2.38;;;;;;;5.12;100.00;101063.44;5020094;28;20086;-96
2022/11/25 06:51:12;;;;;;;21.35;2.70;;;;;;;5.19;100.00;101085.47;5017804;28;20022;-96
2022/11/25 06:53:53;;;;;;;;;;;;;;;;;;;;;
2022/11/25 06:56:23;;;;;;;10.65;2.65;;;;;;;5.10;100.00;101092.88;5015503;28;20105;-96
2022/11/25 06:58:55;;;;;;;15.33;2.93;;;;;;;5.04;100.00;101090.25;5018037;28;20030;-96
2022/11/25 07:01:27;;;;;;;18.38;2.90;;;;;;;4.97;100.00;101104.38;5021568;28;20080;-96
2022/11/25 07:04:31;;;;;;;;;;;;;;;;;;;;;
2022/11/25 07:07:12;;;;;;;12.75;2.75;;;;;;;4.87;100.00;101100.56;5019126;28;20243;-96
2022/11/25 08:17:31;;;;;;;;;;;;;;;;;;;;;
2022/11/25 08:23:53;;;;;;;;;;;;;;;;;;;;;
2022/11/25 08:34:02;;;;;;;19.43;3.70;;;;;;;5.33;100.00;101242.16;4997715;28;20062;-96
2022/11/25 08:36:34;;;;;;;14.07;3.60;;;;;;;5.27;100.00;101220.72;4997723;28;20027;-96
2022/11/25 08:39:10;;;;;;;19.50;3.58;;;;;;;5.45;100.00;101243.91;4997227;28;20463;-95
2022/11/25 08:41:54;;;;;;;;;;;;;;;;;;;;;
2022/11/25 08:45:20;;;;;;;;;;;;;;;;;;;;;
2022/11/25 08:48:02;;;;;;;;;;;;;;;;;;;;;
2022/11/25 09:00:41;;;;;;;10.75;3.08;;;;;;;5.78;100.00;101263.38;4977717;28;20072;-96
2022/11/25 09:03:40;;;;;;;16.00;3.83;;;;;;;5.88;100.00;101274.34;5017106;28;20057;-96
2022/11/25 09:06:28;;;;;;;;;;;;;;;;;;;;;
2022/11/25 09:09:00;;;;;;;19.13;3.65;;;;;;;5.95;100.00;101279.59;5020492;28;20102;-96
2022/11/25 09:11:44;;;;;;;11.77;3.37;;;;;;;5.94;100.00;101277.16;5011923;28;20026;-95
2022/11/25 09:23:25;;;;;;;19.40;3.85;;;;;;;6.14;100.00;101291.19;4957201;28;20070;-96
2022/11/25 09:26:00;;;;;;;17.95;3.42;;;;;;;6.05;100.00;101279.16;4979241;28;20038;-95
2022/11/25 09:28:31;;;;;;;27.10;4.13;;;;;;;6.06;100.00;101276.28;5024367;28;20105;-94
2022/11/25 09:38:21;;;;;;;18.60;3.75;;;;;;;6.29;100.00;101306.00;4967519;28;20047;-95
2022/11/25 09:48:00;;;;;;;18.50;4.43;;;;;;;6.47;100.00;101334.53;4936194;29;20099;-96
2022/11/25 09:51:00;;;;;;;16.95;4.03;;;;;;;6.51;100.00;101341.88;4935530;29;20044;-95
2022/11/25 09:54:06;;;;;;;17.60;4.43;;;;;;;6.54;100.00;101347.78;4912310;29;20071;-95
2022/11/25 09:57:23;;;;;;;;;;;;;;;;;;;;;
2022/11/25 10:00:42;;;;;;;;;;;;;;;;;;;;;
2022/11/25 10:07:43;;;;;;;19.65;4.50;;;;;;;6.63;100.00;101330.50;4976003;28;20031;-96
2022/11/25 10:19:58;;;;;;;17.53;4.00;;;;;;;7.02;100.00;101373.78;4954254;28;20303;-96
2022/11/25 10:23:03;;;;;;;16.83;3.70;;;;;;;7.08;100.00;101380.91;4953287;28;20039;-96
2022/11/25 10:25:57;;;;;;;;;;;;;;;;;;;;;
2022/11/25 10:28:45;;;;;;;12.85;4.07;;;;;;;7.07;100.00;101381.09;4938756;29;20107;-95
2022/11/25 10:42:08;;;;;;;18.63;3.33;;;;;;;7.28;100.00;101387.88;5800695;22;20045;-96
2022/11/25 10:45:34;;;;;;;14.05;3.28;;;;;;;7.40;100.00;101407.41;5038702;28;20037;-96
2022/11/25 10:50:50;;;;;;;17.07;2.80;;;;;;;7.54;100.00;101417.94;5644468;23;20050;-96
2022/11/25 10:57:19;;;;;;;10.60;2.88;;;;;;;7.68;100.00;101419.41;4993233;28;20070;-96
2022/11/25 11:02:47;;;;;;;15.43;3.10;;;;;;;7.76;100.00;101436.16;5098422;23;20062;-96
2022/11/25 11:08:12;;;;;;;11.73;2.50;;;;;;;7.87;100.00;101435.38;5053214;22;20058;-94
2022/11/25 11:10:40;;;;;;;15.13;2.73;;;;;;;7.77;100.00;101405.75;5003873;28;20031;-94
2022/11/25 11:13:29;;;;;;;13.10;2.40;;;;;;;7.85;100.00;101410.81;5008366;28;20022;-96
2022/11/25 11:16:03;;;;;;;18.48;2.22;;;;;;;7.84;100.00;101411.84;4991292;28;20063;-96
2022/11/25 11:19:17;;;;;;;8.85;2.50;;;;;;;8.04;100.00;101444.41;4985504;28;20039;-96
2022/11/25 11:21:46;;;;;;;12.23;3.13;;;;;;;8.04;100.00;101440.94;4983968;28;20102;-96
2022/11/25 11:25:19;;;;;;;;;;;;;;;;;;;;;
2022/11/25 11:28:07;;;;;;;;;;;;;;;;;;;;;
2022/11/25 11:31:35;;;;;;;11.47;2.73;;;;;;;8.30;100.00;101465.66;4981568;28;20361;-94
2022/11/25 11:34:25;;;;;;;9.50;2.03;;;;;;;8.41;100.00;101472.06;4975861;28;20045;-95
2022/11/25 11:37:30;;;;;;;;;;;;;;;;;;;;;
2022/11/25 11:44:30;;;;;;;;;;;;;;;;;;;;;
2022/11/25 11:48:02;;;;;;;;;;;;;;;;;;;;;
2022/11/25 11:54:36;;;;;;;9.35;1.27;;;;;;;8.74;100.00;101500.19;4971412;28;20556;-95
2022/11/25 11:57:42;;;;;;;10.05;1.60;;;;;;;8.67;100.00;101488.78;4973669;28;20675;-96
2022/11/25 12:00:59;;;;;;;4.65;1.10;;;;;;;8.77;100.00;101489.84;4982969;28;20044;-93
2022/11/25 12:04:19;;;;;;;;;;;;;;;;;;;;;
2022/11/25 12:10:59;;;;;;;6.73;1.23;;;;;;;9.17;100.00;101488.38;4935562;29;20350;-93
2022/11/25 12:24:33;;;;;;;;;;;;;;;;;;;;;
2022/11/25 12:34:12;;;;;;;10.13;1.27;;;;;;;9.62;100.00;101521.75;4881332;29;20041;-95
2022/11/25 12:37:01;;;;;;;12.82;1.50;;;;;;;9.54;100.00;101512.22;4952141;28;20043;-95
2022/11/25 12:39:59;;;;;;;8.57;1.50;;;;;;;9.52;100.00;101516.97;4962915;28;20038;-93
2022/11/25 12:43:00;;;;;;;;;;;;;;;;;;;;;
2022/11/25 12:46:07;;;;;;;10.07;1.48;;;;;;;9.53;100.00;101545.38;4972096;28;20070;-95
2022/11/25 12:48:51;;;;;;;;;;;;;;;;;;;;;
2022/11/25 12:54:42;;;;;;;;;;;;;;;;;;;;;
2022/11/25 12:57:47;;;;;;;;;;;;;;;;;;;;;
2022/11/25 13:00:24;;;;;;;9.05;2.25;;;;;;;9.86;100.00;101561.88;4963428;28;20429;-93
2022/11/25 13:06:38;;;;;;;;;;;;;;;;;;;;;
2022/11/25 13:09:21;;;;;;;7.20;1.67;;;;;;;10.33;100.00;101578.88;4973247;28;20056;-94
2022/11/25 13:12:16;;;;;;;11.40;1.95;;;;;;;10.31;100.00;101597.88;4972811;28;20042;-93
2022/11/25 13:15:09;;;;;;;13.82;1.90;;;;;;;10.35;100.00;101599.03;4973097;28;20023;-94
2022/11/25 13:17:39;;;;;;;15.10;2.05;;;;;;;10.50;100.00;101605.78;4972679;28;20043;-93
2022/11/25 13:20:26;;;;;;;17.15;2.55;;;;;;;10.60;100.00;101612.16;4973130;28;20030;-93
2022/11/25 13:23:03;;;;;;;11.55;2.20;;;;;;;10.71;100.00;101602.44;4972770;28;20035;-93
2022/11/25 13:25:30;;;;;;;11.90;1.93;;;;;;;10.81;100.00;101609.88;4973096;28;20030;-93
2022/11/25 13:27:58;;;;;;;11.05;2.28;;;;;;;10.74;100.00;101603.81;4971524;28;20023;-94
2022/11/25 13:30:32;;;;;;;10.85;2.40;;;;;;;10.71;100.00;101620.38;4974150;28;20023;-93
2022/11/25 13:33:10;;;;;;;15.57;2.78;;;;;;;10.70;100.00;101619.59;4972649;28;20402;-93
2022/11/25 13:35:37;;;;;;;12.07;2.25;;;;;;;10.70;100.00;101621.44;4972876;28;20035;-93
2022/11/25 13:38:26;;;;;;;13.40;2.60;;;;;;;10.59;100.00;101623.13;4983671;28;20031;-93
2022/11/25 13:40:58;;;;;;;15.50;2.70;;;;;;;10.52;100.00;101628.59;4974676;28;20127;-93
2022/11/25 13:43:23;;;;;;;12.95;2.65;;;;;;;10.54;100.00;101636.41;4981388;28;20019;-92
2022/11/25 13:45:49;;;;;;;15.80;2.38;;;;;;;10.57;100.00;101634.06;4991853;28;20041;-93
2022/11/25 13:48:28;;;;;;;17.93;3.07;;;;;;;10.60;100.00;101633.59;4975252;28;20106;-92
2022/11/25 13:51:23;;;;;;;14.27;2.83;;;;;;;10.59;100.00;101644.56;4975310;28;20031;-92
2022/11/25 13:53:56;;;;;;;14.13;2.92;;;;;;;10.55;100.00;101646.88;4974958;28;20019;-94
2022/11/25 13:56:34;;;;;;;19.92;2.72;;;;;;;10.50;100.00;101646.78;4973888;28;20446;-93
2022/11/25 13:59:08;;;;;;;13.55;2.90;;;;;;;10.50;100.00;101643.28;4973903;28;20035;-93
2022/11/25 14:01:34;;;;;;;16.95;3.15;;;;;;;10.44;100.00;101645.88;4972434;28;20030;-93
2022/11/25 14:04:05;;;;;;;14.83;2.93;;;;;;;10.36;100.00;101650.75;4972554;28;20051;-94
2022/11/25 14:06:49;;;;;;;21.73;3.42;;;;;;;10.27;100.00;101655.66;4969190;28;20173;-93
2022/11/25 14:09:50;;;;;;;22.58;3.30;;;;;;;10.18;100.00;101652.53;4951827;28;20038;-93
2022/11/25 14:12:42;;;;;;;14.63;2.60;;;;;;;10.07;100.00;101656.03;4969161;28;20042;-90
2022/11/25 14:15:27;;;;;;;17.23;3.40;;;;;;;9.94;100.00;101662.44;4953599;28;20023;-93
2022/11/25 14:18:13;;;;;;;15.80;3.15;;;;;;;9.85;100.00;101668.16;4984399;28;20026;-91
2022/11/25 14:20:47;;;;;;;15.90;4.03;;;;;;;9.79;100.00;101676.28;4970406;28;20027;-94
2022/11/25 14:23:27;;;;;;;22.08;3.15;;;;;;;9.63;100.00;101667.06;4973783;28;20033;-91
2022/11/25 14:25:55;;;;;;;22.48;3.67;;;;;;;9.51;100.00;101669.72;4973409;28;20035;-94
2022/11/25 14:28:24;;;;;;;13.73;2.80;;;;;;;9.42;100.00;101674.59;4973372;28;20037;-96
2022/11/25 14:30:52;;;;;;;16.00;3.20;;;;;;;9.30;100.00;101679.09;5000138;28;20034;-95
2022/11/25 14:33:24;;;;;;;14.37;2.83;;;;;;;9.16;100.00;101681.94;4993663;28;20015;-95
2022/11/25 14:35:56;;;;;;;15.20;3.37;;;;;;;9.05;100.00;101693.44;4976029;28;20297;-96
2022/11/25 14:38:28;;;;;;;16.73;2.90;;;;;;;8.97;100.00;101689.22;4972720;28;20121;-95
2022/11/25 14:41:02;;;;;;;14.50;2.85;;;;;;;8.88;100.00;101704.75;4977919;28;20379;-91
2022/11/25 14:43:29;;;;;;;19.63;4.25;;;;;;;8.89;100.00;101703.69;4978824;28;20031;-90
2022/11/25 14:46:14;;;;;;;20.77;5.05;;;;;;;8.88;100.00;101703.91;4972285;28;20128;-92
2022/11/25 14:48:39;;;;;;;22.10;4.00;;;;;;;8.83;100.00;101717.94;4970482;28;20391;-91
2022/11/25 14:51:07;;;;;;;18.07;3.50;;;;;;;8.76;100.00;101718.03;4970133;28;20034;-91
2022/11/25 14:53:44;;;;;;;21.52;3.53;;;;;;;8.73;100.00;101723.81;4973993;28;20033;-92
2022/11/25 14:56:10;;;;;;;19.55;3.35;;;;;;;8.70;100.00;101728.81;4970347;28;20027;-93
2022/11/25 14:58:47;;;;;;;19.03;3.80;;;;;;;8.71;100.00;101741.13;4974518;28;20034;-93
2022/11/25 15:01:18;;;;;;;19.03;2.97;;;;;;;8.71;100.00;101741.13;4975997;28;20278;-92
2022/11/25 15:04:05;;;;;;;14.93;3.33;;;;;;;8.73;100.00;101742.53;4978399;28;20057;-93
2022/11/25 15:06:36;;;;;;;22.50;4.07;;;;;;;8.81;100.00;101751.28;4981196;28;20145;-92
2022/11/25 15:09:03;;;;;;;20.65;4.32;;;;;;;8.83;100.00;101752.69;4982390;28;20035;-92
2022/11/25 15:11:31;;;;;;;12.63;3.58;;;;;;;8.79;100.00;101747.00;4978342;28;20097;-91
2022/11/25 15:14:00;;;;;;;21.67;3.83;;;;;;;8.75;100.00;101747.66;4976935;28;20494;-91
2022/11/25 15:16:33;;;;;;;17.77;3.35;;;;;;;8.72;100.00;101753.44;4978890;28;20106;-92
2022/11/25 15:19:02;;;;;;;15.43;3.40;;;;;;;8.78;100.00;101757.88;4979393;28;20058;-92
2022/11/25 15:21:31;;;;;;;17.67;3.23;;;;;;;8.84;100.00;101762.34;4981131;28;20297;-92
2022/11/25 15:23:58;;;;;;;16.23;3.75;;;;;;;8.91;100.00;101772.97;4981614;28;20027;-93
2022/11/25 15:26:26;;;;;;;15.65;4.47;;;;;;;9.00;100.00;101773.47;4979850;28;20039;-92
2022/11/25 15:28:59;;;;;;;29.70;4.22;;;;;;;9.04;100.00;101780.03;4976553;28;20065;-92
2022/11/25 15:31:29;;;;;;;14.10;3.90;;;;;;;9.06;100.00;101780.63;4978853;28;20030;-93
2022/11/25 15:33:58;;;;;;;19.23;3.80;;;;;;;9.08;100.00;101783.88;4976125;28;20441;-92
2022/11/25 15:36:24;;;;;;;12.17;3.20;;;;;;;9.03;100.00;101781.06;4978340;28;20022;-93
2022/11/25 15:38:51;;;;;;;19.57;3.83;;;;;;;8.96;100.00;101789.16;4976827;28;20279;-93
2022/11/25 15:41:33;;;;;;;16.45;3.58;;;;;;;8.95;100.00;101800.88;4977444;28;20467;-93
2022/11/25 15:44:01;;;;;;;16.30;3.42;;;;;;;8.91;100.00;101797.03;4990164;28;20087;-93
2022/11/25 15:46:28;;;;;;;19.50;3.00;;;;;;;8.85;100.00;101803.28;4987106;28;20038;-89
2022/11/25 15:48:57;;;;;;;16.92;3.20;;;;;;;8.77;100.00;101809.69;4987389;28;20447;-93
2022/11/25 15:51:41;;;;;;;20.52;3.75;;;;;;;8.69;100.00;101812.66;4974999;28;20042;-93
2022/11/25 15:54:23;;;;;;;17.38;3.13;;;;;;;8.58;100.00;101819.56;4974487;28;20494;-93
2022/11/25 15:56:54;;;;;;;19.93;3.10;;;;;;;8.38;100.00;101822.38;4973812;28;20038;-92
2022/11/25 15:59:49;;;;;;;14.40;2.80;;;;;;;8.24;100.00;101827.81;4975923;28;20782;-92
2022/11/25 16:02:35;;;;;;;18.13;3.40;;;;;;;8.10;100.00;101839.63;4975167;28;20078;-93
2022/11/25 16:05:16;;;;;;;19.85;3.70;;;;;;;7.95;100.00;101840.75;4973633;28;20038;-92
2022/11/25 16:07:50;;;;;;;20.58;3.38;;;;;;;7.86;100.00;101847.38;4973423;28;20042;-92